createdAt,value
2018-05-27T00:00:10.051Z,23.15
2018-05-27T00:00:42.081Z,23.17
2018-05-27T00:01:14.889Z,23.15
2018-05-27T00:01:46.911Z,23.15
2018-05-27T00:02:18.976Z,23.15
2018-05-27T00:02:50.985Z,23.15
2018-05-27T00:03:23.010Z,23.16
2018-05-27T00:03:55.048Z,23.15
2018-05-27T00:04:27.075Z,23.15
2018-05-27T00:04:59.118Z,23.16
2018-05-27T00:05:31.138Z,23.16
2018-05-27T00:06:03.169Z,23.15
2018-05-27T00:06:35.194Z,23.15
2018-05-27T00:07:07.215Z,23.15
2018-05-27T00:07:39.249Z,23.14
2018-05-27T00:08:12.079Z,23.14
2018-05-27T00:08:44.108Z,23.14
2018-05-27T00:09:16.146Z,23.13
2018-05-27T00:09:48.180Z,23.15
2018-05-27T00:10:20.991Z,23.15
2018-05-27T00:10:53.025Z,23.14
2018-05-27T00:11:25.794Z,23.14
2018-05-27T00:11:57.829Z,23.14
2018-05-27T00:12:30.619Z,23.14
2018-05-27T00:13:02.634Z,23.15
2018-05-27T00:13:35.442Z,23.14
2018-05-27T00:14:07.464Z,23.14
2018-05-27T00:14:40.274Z,23.15
2018-05-27T00:15:12.311Z,23.14
2018-05-27T00:15:44.338Z,23.14
2018-05-27T00:16:17.137Z,23.15
2018-05-27T00:16:49.166Z,23.14
2018-05-27T00:17:21.939Z,23.13
2018-05-27T00:17:54.725Z,23.14
2018-05-27T00:18:26.742Z,23.13
2018-05-27T00:18:59.543Z,23.13
2018-05-27T00:19:31.570Z,23.13
2018-05-27T00:20:04.378Z,23.13
2018-05-27T00:20:36.399Z,23.11
2018-05-27T00:21:08.419Z,23.11
2018-05-27T00:21:40.438Z,23.10
2018-05-27T00:22:12.471Z,23.11
2018-05-27T00:22:44.499Z,23.11
2018-05-27T00:23:16.544Z,23.10
2018-05-27T00:23:49.325Z,23.10
2018-05-27T00:24:21.369Z,23.11
2018-05-27T00:24:53.413Z,23.10
2018-05-27T00:25:26.196Z,23.10
2018-05-27T00:25:58.232Z,23.11
2018-05-27T00:26:31.027Z,23.11
2018-05-27T00:27:03.058Z,23.12
2018-05-27T00:27:35.845Z,23.11
2018-05-27T00:28:07.885Z,23.10
2018-05-27T00:28:40.665Z,23.11
2018-05-27T00:29:12.695Z,23.13
2018-05-27T00:29:45.480Z,23.11
2018-05-27T00:30:17.515Z,23.11
2018-05-27T00:30:50.302Z,23.11
2018-05-27T00:31:22.337Z,23.11
2018-05-27T00:31:54.721Z,23.10
2018-05-27T00:32:26.746Z,23.10
2018-05-27T00:32:59.540Z,23.11
2018-05-27T00:33:31.570Z,23.10
2018-05-27T00:34:04.363Z,23.11
2018-05-27T00:34:36.402Z,23.11
2018-05-27T00:35:08.455Z,23.10
2018-05-27T00:35:40.485Z,23.10
2018-05-27T00:36:13.378Z,23.11
2018-05-27T00:36:46.141Z,23.11
2018-05-27T00:37:18.167Z,23.09
2018-05-27T00:37:50.965Z,23.10
2018-05-27T00:38:23.020Z,23.10
2018-05-27T00:38:55.045Z,23.11
2018-05-27T00:39:27.866Z,23.11
2018-05-27T00:39:59.889Z,23.10
2018-05-27T00:40:31.899Z,23.11
2018-05-27T00:41:03.931Z,23.10
2018-05-27T00:41:35.964Z,23.10
2018-05-27T00:42:07.981Z,23.09
2018-05-27T00:42:40.018Z,23.10
2018-05-27T00:43:12.805Z,23.11
2018-05-27T00:43:44.850Z,23.10
2018-05-27T00:44:17.659Z,23.12
2018-05-27T00:44:49.679Z,23.09
2018-05-27T00:45:21.714Z,23.09
2018-05-27T00:45:54.511Z,23.10
2018-05-27T00:46:26.530Z,23.10
2018-05-27T00:46:59.331Z,23.09
2018-05-27T00:47:31.370Z,23.09
2018-05-27T00:48:03.390Z,23.10
2018-05-27T00:48:35.420Z,23.10
2018-05-27T00:49:07.474Z,23.10
2018-05-27T00:49:39.487Z,23.09
2018-05-27T00:50:11.520Z,23.08
2018-05-27T00:50:43.556Z,23.08
2018-05-27T00:51:16.349Z,23.07
2018-05-27T00:51:48.380Z,23.08
2018-05-27T00:52:21.170Z,23.08
2018-05-27T00:52:53.192Z,23.11
2018-05-27T00:53:26.019Z,23.11
2018-05-27T00:53:58.064Z,23.11
2018-05-27T00:54:30.078Z,23.19
2018-05-27T00:55:02.109Z,23.23
2018-05-27T00:55:34.141Z,23.21
2018-05-27T00:56:06.154Z,23.19
2018-05-27T00:56:38.183Z,23.19
2018-05-27T00:57:10.227Z,23.18
2018-05-27T00:57:43.015Z,23.16
2018-05-27T00:58:15.142Z,23.14
2018-05-27T00:58:47.182Z,23.14
2018-05-27T00:59:19.219Z,23.11
2018-05-27T00:59:51.247Z,23.10
2018-05-27T01:00:23.302Z,23.10
2018-05-27T01:00:55.326Z,23.09
2018-05-27T01:01:27.355Z,23.09
2018-05-27T01:02:00.163Z,23.09
2018-05-27T01:02:32.186Z,23.08
2018-05-27T01:03:04.338Z,23.08
2018-05-27T01:03:36.290Z,23.08
2018-05-27T01:04:08.328Z,23.09
2018-05-27T01:04:40.354Z,23.08
2018-05-27T01:05:12.414Z,23.09
2018-05-27T01:05:44.419Z,23.09
2018-05-27T01:06:16.444Z,23.09
2018-05-27T01:06:48.474Z,23.10
2018-05-27T01:07:20.514Z,23.10
2018-05-27T01:07:52.541Z,23.10
2018-05-27T01:08:24.590Z,23.08
2018-05-27T01:08:56.641Z,23.09
2018-05-27T01:09:28.664Z,23.09
2018-05-27T01:10:00.695Z,23.08
2018-05-27T01:10:33.488Z,23.08
2018-05-27T01:11:05.515Z,23.08
2018-05-27T01:11:38.298Z,23.14
2018-05-27T01:12:10.346Z,23.24
2018-05-27T01:12:42.371Z,23.25
2018-05-27T01:13:14.430Z,23.22
2018-05-27T01:13:47.247Z,23.19
2018-05-27T01:14:19.266Z,23.18
2018-05-27T01:14:51.326Z,23.15
2018-05-27T01:15:24.088Z,23.14
2018-05-27T01:15:56.173Z,23.11
2018-05-27T01:16:28.197Z,23.10
2018-05-27T01:17:00.222Z,23.09
2018-05-27T01:17:33.047Z,23.09
2018-05-27T01:18:05.064Z,23.09
2018-05-27T01:18:37.147Z,23.10
2018-05-27T01:19:09.175Z,23.10
2018-05-27T01:19:41.212Z,23.09
2018-05-27T01:20:14.003Z,23.08
2018-05-27T01:20:46.184Z,23.08
2018-05-27T01:21:18.208Z,23.08
2018-05-27T01:21:50.227Z,23.08
2018-05-27T01:22:23.026Z,23.08
2018-05-27T01:22:55.066Z,23.08
2018-05-27T01:23:27.090Z,23.08
2018-05-27T01:23:59.131Z,23.09
2018-05-27T01:24:31.135Z,23.09
2018-05-27T01:25:03.158Z,23.09
2018-05-27T01:25:35.993Z,23.08
2018-05-27T01:26:07.984Z,23.06
2018-05-27T01:26:40.022Z,23.07
2018-05-27T01:27:12.815Z,23.06
2018-05-27T01:27:44.880Z,23.07
2018-05-27T01:28:16.901Z,23.07
2018-05-27T01:28:49.701Z,23.08
2018-05-27T01:29:21.719Z,23.07
2018-05-27T01:29:54.515Z,23.07
2018-05-27T01:30:26.552Z,23.07
2018-05-27T01:30:59.369Z,23.07
2018-05-27T01:31:31.382Z,23.06
2018-05-27T01:32:03.403Z,23.06
2018-05-27T01:32:36.212Z,23.07
2018-05-27T01:33:08.263Z,23.07
2018-05-27T01:33:40.275Z,23.06
2018-05-27T01:34:13.091Z,23.06
2018-05-27T01:34:45.116Z,23.06
2018-05-27T01:35:17.898Z,23.04
2018-05-27T01:35:49.920Z,23.05
2018-05-27T01:36:22.722Z,23.06
2018-05-27T01:36:54.770Z,23.06
2018-05-27T01:37:26.812Z,23.05
2018-05-27T01:37:58.926Z,23.07
2018-05-27T01:38:30.923Z,23.06
2018-05-27T01:39:02.956Z,23.06
2018-05-27T01:39:35.746Z,23.05
2018-05-27T01:40:07.779Z,23.06
2018-05-27T01:40:39.816Z,23.06
2018-05-27T01:41:12.595Z,23.05
2018-05-27T01:41:44.630Z,23.07
2018-05-27T01:42:17.419Z,23.05
2018-05-27T01:42:49.447Z,23.05
2018-05-27T01:43:21.486Z,23.06
2018-05-27T01:43:53.523Z,23.04
2018-05-27T01:44:25.568Z,23.04
2018-05-27T01:44:57.589Z,23.04
2018-05-27T01:45:29.611Z,23.04
2018-05-27T01:46:02.405Z,23.04
2018-05-27T01:46:34.440Z,23.04
2018-05-27T01:47:07.238Z,23.05
2018-05-27T01:47:39.263Z,23.06
2018-05-27T01:48:12.056Z,23.05
2018-05-27T01:48:44.081Z,23.04
2018-05-27T01:49:16.887Z,23.04
2018-05-27T01:49:48.918Z,23.04
2018-05-27T01:50:20.941Z,23.03
2018-05-27T01:50:53.730Z,23.04
2018-05-27T01:51:25.761Z,23.05
2018-05-27T01:51:57.796Z,23.06
2018-05-27T01:52:29.824Z,23.06
2018-05-27T01:53:01.846Z,23.04
2018-05-27T01:53:33.886Z,23.04
2018-05-27T01:54:05.934Z,23.04
2018-05-27T01:54:38.716Z,23.04
2018-05-27T01:55:10.738Z,23.05
2018-05-27T01:55:43.536Z,23.03
2018-05-27T01:56:15.565Z,23.04
2018-05-27T01:56:48.340Z,23.03
2018-05-27T01:57:21.138Z,23.02
2018-05-27T01:57:53.162Z,23.02
2018-05-27T01:58:25.227Z,23.03
2018-05-27T01:58:57.987Z,23.03
2018-05-27T01:59:30.046Z,23.02
2018-05-27T02:00:02.107Z,23.02
2018-05-27T02:00:34.147Z,23.02
2018-05-27T02:01:06.174Z,23.03
2018-05-27T02:01:38.967Z,23.03
2018-05-27T02:02:11.019Z,23.02
2018-05-27T02:02:43.054Z,23.02
2018-05-27T02:03:15.092Z,23.03
2018-05-27T02:03:47.882Z,23.03
2018-05-27T02:04:19.903Z,23.03
2018-05-27T02:04:51.925Z,23.04
2018-05-27T02:05:23.948Z,23.03
2018-05-27T02:05:55.981Z,23.03
2018-05-27T02:06:28.760Z,23.02
2018-05-27T02:07:00.819Z,23.01
2018-05-27T02:07:32.845Z,23.02
2018-05-27T02:08:05.633Z,23.01
2018-05-27T02:08:37.659Z,23.00
2018-05-27T02:09:10.451Z,23.01
2018-05-27T02:09:42.479Z,22.99
2018-05-27T02:10:14.499Z,22.99
2018-05-27T02:10:46.548Z,22.99
2018-05-27T02:11:18.556Z,23.01
2018-05-27T02:11:50.582Z,23.00
2018-05-27T02:12:23.368Z,23.00
2018-05-27T02:12:55.420Z,22.99
2018-05-27T02:13:27.415Z,23.00
2018-05-27T02:13:59.471Z,22.99
2018-05-27T02:14:31.500Z,22.98
2018-05-27T02:15:03.519Z,22.99
2018-05-27T02:15:35.549Z,23.00
2018-05-27T02:16:07.576Z,22.99
2018-05-27T02:16:39.635Z,23.01
2018-05-27T02:17:11.630Z,23.01
2018-05-27T02:17:43.665Z,23.02
2018-05-27T02:18:15.676Z,23.02
2018-05-27T02:18:47.711Z,23.03
2018-05-27T02:19:19.728Z,23.01
2018-05-27T02:19:52.514Z,23.01
2018-05-27T02:20:24.535Z,23.00
2018-05-27T02:20:57.348Z,23.01
2018-05-27T02:21:29.371Z,23.01
2018-05-27T02:22:02.167Z,23.02
2018-05-27T02:22:34.191Z,23.02
2018-05-27T02:23:06.972Z,23.03
2018-05-27T02:23:39.000Z,23.03
2018-05-27T02:24:11.012Z,23.02
2018-05-27T02:24:43.036Z,23.01
2018-05-27T02:25:15.062Z,23.02
2018-05-27T02:25:47.084Z,23.01
2018-05-27T02:26:19.102Z,23.01
2018-05-27T02:26:51.135Z,23.01
2018-05-27T02:27:23.171Z,23.01
2018-05-27T02:27:55.198Z,23.01
2018-05-27T02:28:27.219Z,23.00
2018-05-27T02:28:59.290Z,23.01
2018-05-27T02:29:31.293Z,23.02
2018-05-27T02:30:03.330Z,23.01
2018-05-27T02:30:35.365Z,23.00
2018-05-27T02:31:08.160Z,22.99
2018-05-27T02:31:40.182Z,22.99
2018-05-27T02:32:12.980Z,23.01
2018-05-27T02:32:45.008Z,22.99
2018-05-27T02:33:17.784Z,22.99
2018-05-27T02:33:49.816Z,22.99
2018-05-27T02:34:22.606Z,22.99
2018-05-27T02:34:54.652Z,23.00
2018-05-27T02:35:27.427Z,23.00
2018-05-27T02:35:59.460Z,23.00
2018-05-27T02:36:32.240Z,23.02
2018-05-27T02:37:04.265Z,23.01
2018-05-27T02:37:36.318Z,23.02
2018-05-27T02:38:08.363Z,23.01
2018-05-27T02:38:40.385Z,23.00
2018-05-27T02:39:12.390Z,23.01
2018-05-27T02:39:45.201Z,22.99
2018-05-27T02:40:17.220Z,23.00
2018-05-27T02:40:49.242Z,23.01
2018-05-27T02:41:21.282Z,23.01
2018-05-27T02:41:53.298Z,23.00
2018-05-27T02:42:25.429Z,22.99
2018-05-27T02:42:58.200Z,22.99
2018-05-27T02:43:30.212Z,22.99
2018-05-27T02:44:02.269Z,22.97
2018-05-27T02:44:34.290Z,22.98
2018-05-27T02:45:06.366Z,22.97
2018-05-27T02:45:38.399Z,22.98
2018-05-27T02:46:10.462Z,22.99
2018-05-27T02:46:42.481Z,23.00
2018-05-27T02:47:14.518Z,23.00
2018-05-27T02:47:46.563Z,23.01
2018-05-27T02:48:18.626Z,23.00
2018-05-27T02:48:50.647Z,23.02
2018-05-27T02:49:23.431Z,23.00
2018-05-27T02:49:55.518Z,23.00
2018-05-27T02:50:27.535Z,22.99
2018-05-27T02:50:59.560Z,22.98
2018-05-27T02:51:32.385Z,22.98
2018-05-27T02:52:04.408Z,22.98
2018-05-27T02:52:36.474Z,22.98
2018-05-27T02:53:08.512Z,22.97
2018-05-27T02:53:41.296Z,22.96
2018-05-27T02:54:13.311Z,22.97
2018-05-27T02:54:46.133Z,22.97
2018-05-27T02:55:18.150Z,22.97
2018-05-27T02:55:50.168Z,22.97
2018-05-27T02:56:22.194Z,22.97
2018-05-27T02:56:54.219Z,22.96
2018-05-27T02:57:26.251Z,22.96
2018-05-27T02:57:58.276Z,22.96
2018-05-27T02:58:30.308Z,22.96
2018-05-27T02:59:02.334Z,22.96
2018-05-27T02:59:34.350Z,22.96
2018-05-27T03:00:07.154Z,22.96
2018-05-27T03:00:39.170Z,22.96
2018-05-27T03:01:11.195Z,22.97
2018-05-27T03:01:43.271Z,22.96
2018-05-27T03:02:16.055Z,22.98
2018-05-27T03:02:48.088Z,22.98
2018-05-27T03:03:20.890Z,22.98
2018-05-27T03:03:52.906Z,23.00
2018-05-27T03:04:25.688Z,22.99
2018-05-27T03:04:57.720Z,23.00
2018-05-27T03:05:30.510Z,23.00
2018-05-27T03:06:02.569Z,22.99
2018-05-27T03:06:35.347Z,22.98
2018-05-27T03:07:07.388Z,22.99
2018-05-27T03:07:39.419Z,22.98
2018-05-27T03:08:12.202Z,22.97
2018-05-27T03:08:44.231Z,22.99
2018-05-27T03:09:17.028Z,22.98
2018-05-27T03:09:49.062Z,22.98
2018-05-27T03:10:21.851Z,22.99
2018-05-27T03:10:53.875Z,22.98
2018-05-27T03:11:26.687Z,22.98
2018-05-27T03:11:58.724Z,22.98
2018-05-27T03:12:30.762Z,23.00
2018-05-27T03:13:02.806Z,22.98
2018-05-27T03:13:35.593Z,22.98
2018-05-27T03:14:07.636Z,22.98
2018-05-27T03:14:40.416Z,22.98
2018-05-27T03:15:12.431Z,22.98
2018-05-27T03:15:45.228Z,22.97
2018-05-27T03:16:17.243Z,22.97
2018-05-27T03:16:49.263Z,22.96
2018-05-27T03:17:21.300Z,22.95
2018-05-27T03:17:53.336Z,22.95
2018-05-27T03:18:25.358Z,22.94
2018-05-27T03:18:58.150Z,22.94
2018-05-27T03:19:30.176Z,22.95
2018-05-27T03:20:03.014Z,22.95
2018-05-27T03:20:35.025Z,22.95
2018-05-27T03:21:07.053Z,22.94
2018-05-27T03:21:39.848Z,22.95
2018-05-27T03:22:11.881Z,22.94
2018-05-27T03:22:44.689Z,22.94
2018-05-27T03:23:16.691Z,22.93
2018-05-27T03:23:49.488Z,22.95
2018-05-27T03:24:21.512Z,22.95
2018-05-27T03:24:54.298Z,22.94
2018-05-27T03:25:26.323Z,22.92
2018-05-27T03:25:58.355Z,22.92
2018-05-27T03:26:30.394Z,22.92
2018-05-27T03:27:02.423Z,22.91
2018-05-27T03:27:34.444Z,22.91
2018-05-27T03:28:07.235Z,22.91
2018-05-27T03:28:39.272Z,22.93
2018-05-27T03:29:12.064Z,22.94
2018-05-27T03:29:44.083Z,22.92
2018-05-27T03:30:16.168Z,22.92
2018-05-27T03:30:48.229Z,22.93
2018-05-27T03:31:20.280Z,22.92
2018-05-27T03:31:52.286Z,22.92
2018-05-27T03:32:25.111Z,22.93
2018-05-27T03:32:57.134Z,22.92
2018-05-27T03:33:29.171Z,22.92
2018-05-27T03:34:01.252Z,22.91
2018-05-27T03:34:33.284Z,22.90
2018-05-27T03:35:05.315Z,22.92
2018-05-27T03:35:38.110Z,22.91
2018-05-27T03:36:10.148Z,22.92
2018-05-27T03:36:42.961Z,22.91
2018-05-27T03:37:14.976Z,22.91
2018-05-27T03:37:47.071Z,22.90
2018-05-27T03:38:19.450Z,22.91
2018-05-27T03:38:51.523Z,22.90
2018-05-27T03:39:24.602Z,22.90
2018-05-27T03:39:56.824Z,22.89
2018-05-27T03:40:28.895Z,22.89
2018-05-27T03:41:02.214Z,22.90
2018-05-27T03:41:34.407Z,22.91
2018-05-27T03:42:06.393Z,22.90
2018-05-27T03:42:38.419Z,22.91
2018-05-27T03:43:10.494Z,22.90
2018-05-27T03:43:43.314Z,22.90
2018-05-27T03:44:15.305Z,22.91
2018-05-27T03:44:48.091Z,22.91
2018-05-27T03:45:20.163Z,22.89
2018-05-27T03:45:52.186Z,22.89
2018-05-27T03:46:24.975Z,22.88
2018-05-27T03:46:56.991Z,22.89
2018-05-27T03:47:29.796Z,22.89
2018-05-27T03:48:01.813Z,22.88
2018-05-27T03:48:34.626Z,22.90
2018-05-27T03:49:06.651Z,22.89
2018-05-27T03:49:38.696Z,22.89
2018-05-27T03:50:11.474Z,22.90
2018-05-27T03:50:43.509Z,22.89
2018-05-27T03:51:16.286Z,22.90
2018-05-27T03:51:48.316Z,22.91
2018-05-27T03:52:20.348Z,22.89
2018-05-27T03:52:52.376Z,22.90
2018-05-27T03:53:24.410Z,22.89
2018-05-27T03:53:56.427Z,22.89
2018-05-27T03:54:29.225Z,22.89
2018-05-27T03:55:01.279Z,22.87
2018-05-27T03:55:33.299Z,22.88
2018-05-27T03:56:06.095Z,22.89
2018-05-27T03:56:38.129Z,22.88
2018-05-27T03:57:10.908Z,22.89
2018-05-27T03:57:42.943Z,22.88
2018-05-27T03:58:14.960Z,22.89
2018-05-27T03:58:47.101Z,22.89
2018-05-27T03:59:19.114Z,22.89
2018-05-27T03:59:51.143Z,22.90
2018-05-27T04:00:23.978Z,22.88
2018-05-27T04:00:55.991Z,22.88
2018-05-27T04:01:28.085Z,22.89
2018-05-27T04:02:00.130Z,22.91
2018-05-27T04:02:32.150Z,22.92
2018-05-27T04:03:04.186Z,22.92
2018-05-27T04:03:36.271Z,22.93
2018-05-27T04:04:08.286Z,22.93
2018-05-27T04:04:41.067Z,22.94
2018-05-27T04:05:13.122Z,22.93
2018-05-27T04:05:45.161Z,22.93
2018-05-27T04:06:17.932Z,22.94
2018-05-27T04:06:49.949Z,22.93
2018-05-27T04:07:22.003Z,22.92
2018-05-27T04:07:54.047Z,22.92
2018-05-27T04:08:26.082Z,22.91
2018-05-27T04:08:58.118Z,22.92
2018-05-27T04:09:30.150Z,22.91
2018-05-27T04:10:02.206Z,22.91
2018-05-27T04:10:34.224Z,22.92
2018-05-27T04:11:07.026Z,22.92
2018-05-27T04:11:39.059Z,22.92
2018-05-27T04:12:11.859Z,22.92
2018-05-27T04:12:43.907Z,22.92
2018-05-27T04:13:15.920Z,22.92
2018-05-27T04:13:48.731Z,22.92
2018-05-27T04:14:20.756Z,22.92
2018-05-27T04:14:52.792Z,22.92
2018-05-27T04:15:25.619Z,22.91
2018-05-27T04:15:57.636Z,22.91
2018-05-27T04:16:29.667Z,22.91
2018-05-27T04:17:02.445Z,22.91
2018-05-27T04:17:34.474Z,22.92
2018-05-27T04:18:06.493Z,22.92
2018-05-27T04:18:38.540Z,22.90
2018-05-27T04:19:10.561Z,22.89
2018-05-27T04:19:42.595Z,22.90
2018-05-27T04:20:15.380Z,22.89
2018-05-27T04:20:47.399Z,22.91
2018-05-27T04:21:19.428Z,22.91
2018-05-27T04:21:51.465Z,22.89
2018-05-27T04:22:23.535Z,22.89
2018-05-27T04:22:55.544Z,22.90
2018-05-27T04:23:27.603Z,22.91
2018-05-27T04:23:59.626Z,22.90
2018-05-27T04:24:31.662Z,22.91
2018-05-27T04:25:04.446Z,22.91
2018-05-27T04:25:37.233Z,22.91
2018-05-27T04:26:09.261Z,22.90
2018-05-27T04:26:42.042Z,22.91
2018-05-27T04:27:14.074Z,22.91
2018-05-27T04:27:46.080Z,22.89
2018-05-27T04:28:18.128Z,22.90
2018-05-27T04:28:50.143Z,22.91
2018-05-27T04:29:22.168Z,22.93
2018-05-27T04:29:54.191Z,22.94
2018-05-27T04:30:26.223Z,22.93
2018-05-27T04:30:58.247Z,22.94
2018-05-27T04:31:31.033Z,22.94
2018-05-27T04:32:03.042Z,22.93
2018-05-27T04:32:35.883Z,22.93
2018-05-27T04:33:07.938Z,22.94
2018-05-27T04:33:39.949Z,22.94
2018-05-27T04:34:11.977Z,22.94
2018-05-27T04:34:44.795Z,22.93
2018-05-27T04:35:16.785Z,22.92
2018-05-27T04:35:49.596Z,22.93
2018-05-27T04:36:21.627Z,22.92
2018-05-27T04:36:54.405Z,22.93
2018-05-27T04:37:26.445Z,22.93
2018-05-27T04:37:59.227Z,22.91
2018-05-27T04:38:31.250Z,22.92
2018-05-27T04:39:04.052Z,22.91
2018-05-27T04:39:36.078Z,22.92
2018-05-27T04:40:08.867Z,22.93
2018-05-27T04:40:40.887Z,22.92
2018-05-27T04:41:13.675Z,22.94
2018-05-27T04:41:46.466Z,22.93
2018-05-27T04:42:18.500Z,22.93
2018-05-27T04:42:50.519Z,22.92
2018-05-27T04:43:22.563Z,22.92
2018-05-27T04:43:54.590Z,22.92
2018-05-27T04:44:26.624Z,22.92
2018-05-27T04:44:58.651Z,22.93
2018-05-27T04:45:30.714Z,22.93
2018-05-27T04:46:02.758Z,22.93
2018-05-27T04:46:34.791Z,22.93
2018-05-27T04:47:06.825Z,22.94
2018-05-27T04:47:38.854Z,22.94
2018-05-27T04:48:10.874Z,22.96
2018-05-27T04:48:42.899Z,22.96
2018-05-27T04:49:15.707Z,22.95
2018-05-27T04:49:47.737Z,22.96
2018-05-27T04:50:19.767Z,22.95
2018-05-27T04:50:52.548Z,22.94
2018-05-27T04:51:24.588Z,22.96
2018-05-27T04:51:57.408Z,22.96
2018-05-27T04:52:29.411Z,22.94
2018-05-27T04:53:02.226Z,22.96
2018-05-27T04:53:34.243Z,22.96
2018-05-27T04:54:06.271Z,22.96
2018-05-27T04:54:38.299Z,22.96
2018-05-27T04:55:10.324Z,22.97
2018-05-27T04:55:42.342Z,22.97
2018-05-27T04:56:14.395Z,22.97
2018-05-27T04:56:46.447Z,22.98
2018-05-27T04:57:19.210Z,22.97
2018-05-27T04:57:52.025Z,22.96
2018-05-27T04:58:24.052Z,22.96
2018-05-27T04:58:56.075Z,22.96
2018-05-27T04:59:28.905Z,22.97
2018-05-27T05:00:00.919Z,22.97
2018-05-27T05:00:32.951Z,22.97
2018-05-27T05:01:05.741Z,22.98
2018-05-27T05:01:37.766Z,22.97
2018-05-27T05:02:10.564Z,22.98
2018-05-27T05:02:42.591Z,22.97
2018-05-27T05:03:15.401Z,22.98
2018-05-27T05:03:47.428Z,22.97
2018-05-27T05:04:19.456Z,22.99
2018-05-27T05:04:52.275Z,22.98
2018-05-27T05:05:24.314Z,22.99
2018-05-27T05:05:56.322Z,23.00
2018-05-27T05:06:29.114Z,23.00
2018-05-27T05:07:01.154Z,23.00
2018-05-27T05:07:33.932Z,23.01
2018-05-27T05:08:05.967Z,22.98
2018-05-27T05:08:37.981Z,23.00
2018-05-27T05:09:10.006Z,22.99
2018-05-27T05:09:42.036Z,22.99
2018-05-27T05:10:14.071Z,22.99
2018-05-27T05:10:46.916Z,22.99
2018-05-27T05:11:18.950Z,23.00
2018-05-27T05:11:50.973Z,23.00
2018-05-27T05:12:23.003Z,23.00
2018-05-27T05:12:55.782Z,23.00
2018-05-27T05:13:27.863Z,23.02
2018-05-27T05:13:59.874Z,23.01
2018-05-27T05:14:32.674Z,23.02
2018-05-27T05:15:04.727Z,23.03
2018-05-27T05:15:36.766Z,23.03
2018-05-27T05:16:08.787Z,23.03
2018-05-27T05:16:41.574Z,23.04
2018-05-27T05:17:13.604Z,23.03
2018-05-27T05:17:45.620Z,23.04
2018-05-27T05:18:17.651Z,23.03
2018-05-27T05:18:49.667Z,23.04
2018-05-27T05:19:22.462Z,23.05
2018-05-27T05:19:54.483Z,23.05
2018-05-27T05:20:27.282Z,23.06
2018-05-27T05:20:59.310Z,23.07
2018-05-27T05:21:31.362Z,23.06
2018-05-27T05:22:04.188Z,23.07
2018-05-27T05:22:36.208Z,23.07
2018-05-27T05:23:08.266Z,23.07
2018-05-27T05:23:40.276Z,23.07
2018-05-27T05:24:13.072Z,23.07
2018-05-27T05:24:45.113Z,23.08
2018-05-27T05:25:17.897Z,23.08
2018-05-27T05:25:49.958Z,23.07
2018-05-27T05:26:22.000Z,23.07
2018-05-27T05:26:54.022Z,23.05
2018-05-27T05:27:26.856Z,23.06
2018-05-27T05:27:58.872Z,23.07
2018-05-27T05:28:30.900Z,23.06
2018-05-27T05:29:03.692Z,23.06
2018-05-27T05:29:35.711Z,23.07
2018-05-27T05:30:08.523Z,23.07
2018-05-27T05:30:40.558Z,23.07
2018-05-27T05:31:12.574Z,23.08
2018-05-27T05:31:44.588Z,23.09
2018-05-27T05:32:16.632Z,23.08
2018-05-27T05:32:48.658Z,23.10
2018-05-27T05:33:20.698Z,23.08
2018-05-27T05:33:53.482Z,23.08
2018-05-27T05:34:25.508Z,23.08
2018-05-27T05:34:58.306Z,23.08
2018-05-27T05:35:30.339Z,23.08
2018-05-27T05:36:03.124Z,23.08
2018-05-27T05:36:35.135Z,23.09
2018-05-27T05:37:07.202Z,23.09
2018-05-27T05:37:39.195Z,23.10
2018-05-27T05:38:11.235Z,23.10
2018-05-27T05:38:43.252Z,23.10
2018-05-27T05:39:16.053Z,23.10
2018-05-27T05:39:48.074Z,23.10
2018-05-27T05:40:20.871Z,23.10
2018-05-27T05:40:52.892Z,23.10
2018-05-27T05:41:25.664Z,23.11
2018-05-27T05:41:58.457Z,23.10
2018-05-27T05:42:30.479Z,23.10
2018-05-27T05:43:03.273Z,23.12
2018-05-27T05:43:35.299Z,23.11
2018-05-27T05:44:08.095Z,23.12
2018-05-27T05:44:40.145Z,23.13
2018-05-27T05:45:12.162Z,23.11
2018-05-27T05:45:44.985Z,23.14
2018-05-27T05:46:16.976Z,23.13
2018-05-27T05:46:49.009Z,23.14
2018-05-27T05:47:21.048Z,23.13
2018-05-27T05:47:53.076Z,23.13
2018-05-27T05:48:25.095Z,23.14
2018-05-27T05:48:57.882Z,23.13
2018-05-27T05:49:29.945Z,23.13
2018-05-27T05:50:01.974Z,23.14
2018-05-27T05:50:34.751Z,23.15
2018-05-27T05:51:06.772Z,23.14
2018-05-27T05:51:38.864Z,23.15
2018-05-27T05:52:10.935Z,23.16
2018-05-27T05:52:42.941Z,23.15
2018-05-27T05:53:15.779Z,23.16
2018-05-27T05:53:47.793Z,23.16
2018-05-27T05:54:19.882Z,23.17
2018-05-27T05:54:51.883Z,23.17
2018-05-27T05:55:24.666Z,23.18
2018-05-27T05:55:56.718Z,23.19
2018-05-27T05:56:28.741Z,23.18
2018-05-27T05:57:01.535Z,23.19
2018-05-27T05:57:33.599Z,23.19
2018-05-27T05:58:05.617Z,23.21
2018-05-27T05:58:38.395Z,23.21
2018-05-27T05:59:11.187Z,23.20
2018-05-27T05:59:43.205Z,23.22
2018-05-27T06:00:16.001Z,23.22
2018-05-27T06:00:48.026Z,23.23
2018-05-27T06:01:20.832Z,23.22
2018-05-27T06:01:52.882Z,23.23
2018-05-27T06:02:24.910Z,23.22
2018-05-27T06:02:56.920Z,23.23
2018-05-27T06:03:28.970Z,23.22
2018-05-27T06:04:00.997Z,23.22
2018-05-27T06:04:33.032Z,23.21
2018-05-27T06:05:05.041Z,23.23
2018-05-27T06:05:37.826Z,23.24
2018-05-27T06:06:09.859Z,23.25
2018-05-27T06:06:42.670Z,23.25
2018-05-27T06:07:14.703Z,23.23
2018-05-27T06:07:47.484Z,23.23
2018-05-27T06:08:19.512Z,23.24
2018-05-27T06:08:52.287Z,23.24
2018-05-27T06:09:24.322Z,23.25
2018-05-27T06:09:57.107Z,23.25
2018-05-27T06:10:29.139Z,23.25
2018-05-27T06:11:01.942Z,23.27
2018-05-27T06:11:33.968Z,23.26
2018-05-27T06:12:06.768Z,23.25
2018-05-27T06:12:38.803Z,23.26
2018-05-27T06:13:10.840Z,23.26
2018-05-27T06:13:43.614Z,23.26
2018-05-27T06:14:15.659Z,23.27
2018-05-27T06:14:48.456Z,23.28
2018-05-27T06:15:20.503Z,23.27
2018-05-27T06:15:52.523Z,23.27
2018-05-27T06:16:25.307Z,23.28
2018-05-27T06:16:57.345Z,23.29
2018-05-27T06:17:29.375Z,23.28
2018-05-27T06:18:01.401Z,23.29
2018-05-27T06:18:33.426Z,23.30
2018-05-27T06:19:05.455Z,23.30
2018-05-27T06:19:38.287Z,23.32
2018-05-27T06:20:10.293Z,23.32
2018-05-27T06:20:42.315Z,23.31
2018-05-27T06:21:14.364Z,23.32
2018-05-27T06:21:46.387Z,23.32
2018-05-27T06:22:18.430Z,23.33
2018-05-27T06:22:50.453Z,23.33
2018-05-27T06:23:22.488Z,23.34
2018-05-27T06:23:54.524Z,23.33
2018-05-27T06:24:26.560Z,23.34
2018-05-27T06:24:58.583Z,23.34
2018-05-27T06:25:30.616Z,23.33
2018-05-27T06:26:02.651Z,23.34
2018-05-27T06:26:34.674Z,23.33
2018-05-27T06:27:07.479Z,23.35
2018-05-27T06:27:39.532Z,23.34
2018-05-27T06:28:11.545Z,23.33
2018-05-27T06:28:43.561Z,23.33
2018-05-27T06:29:15.620Z,23.33
2018-05-27T06:29:47.626Z,23.33
2018-05-27T06:30:19.652Z,23.35
2018-05-27T06:30:51.673Z,23.35
2018-05-27T06:31:23.713Z,23.35
2018-05-27T06:31:55.727Z,23.34
2018-05-27T06:32:28.530Z,23.34
2018-05-27T06:33:00.577Z,23.33
2018-05-27T06:33:32.598Z,23.34
2018-05-27T06:34:05.424Z,23.34
2018-05-27T06:34:37.424Z,23.35
2018-05-27T06:35:09.447Z,23.34
2018-05-27T06:35:41.466Z,23.35
2018-05-27T06:36:13.528Z,23.35
2018-05-27T06:36:45.540Z,23.35
2018-05-27T06:37:17.564Z,23.35
2018-05-27T06:37:49.575Z,23.36
2018-05-27T06:38:21.664Z,23.36
2018-05-27T06:38:53.650Z,23.36
2018-05-27T06:39:25.709Z,23.36
2018-05-27T06:39:57.735Z,23.36
2018-05-27T06:40:29.759Z,23.36
2018-05-27T06:41:02.584Z,23.36
2018-05-27T06:41:34.622Z,23.38
2018-05-27T06:42:06.679Z,23.38
2018-05-27T06:42:38.694Z,23.39
2018-05-27T06:43:11.475Z,23.39
2018-05-27T06:43:43.493Z,23.40
2018-05-27T06:44:15.567Z,23.39
2018-05-27T06:44:48.346Z,23.39
2018-05-27T06:45:20.356Z,23.40
2018-05-27T06:45:52.396Z,23.43
2018-05-27T06:46:24.415Z,23.45
2018-05-27T06:46:56.447Z,23.45
2018-05-27T06:47:28.481Z,23.47
2018-05-27T06:48:01.275Z,23.45
2018-05-27T06:48:33.303Z,23.47
2018-05-27T06:49:06.126Z,23.47
2018-05-27T06:49:38.171Z,23.48
2018-05-27T06:50:10.193Z,23.47
2018-05-27T06:50:42.234Z,23.45
2018-05-27T06:51:15.032Z,23.44
2018-05-27T06:51:47.081Z,23.42
2018-05-27T06:52:19.141Z,23.42
2018-05-27T06:52:51.168Z,23.42
2018-05-27T06:53:23.963Z,23.41
2018-05-27T06:53:55.999Z,23.42
2018-05-27T06:54:28.042Z,23.42
2018-05-27T06:55:00.073Z,23.41